Airport View

Enter ICAO identifier to see the current METAR for that AWOS.

KFNL for example

KPIT 162151Z 13006KT 10SM FEW250 06/M11 A3040 RMK AO2 SLP313 T00611111

16 Apr 2014 22:06

Phone: 412-472-0145

Other Area AWOS: KAGC - KBVI - KBTP - KAFJ

TAF AMD KPIT 162056Z 1621/1724 VRB03KT P6SM SKC FM171400 14008KT P6SM SKC